EBOSEBCI

Guest
Details From EBOS - Oostende
To EBCI - Brussels South - Charleroi
Flight Number -
Tags generated
Created
Modified
Stats Distance 75 nm / 138 km
Max Altitude 9,700 ft / 2,957 m
Waypoints 3
Social Downloads 1
Likes 0
Share VATSIM

Download

Looking for another format? Having issues loading an existing format? Contact us
Advertisement - Login to hide

Notes

Basic altitude profile: - Ascent Rate: 2500ft/min - Ascent Speed: 250kts - Cruise Altitude: 35000ft - Cruise Speed: 420kts - Descent Rate: 1500ft/min - Descent Speed: 250kts Options: - Use NATs: yes - Use PACOTS: yes - Use low airways: yes - Use high airways: no

Route

EBOS MAK EBCI

ID Type Via Altitude Latitude Longitude Leg Dist Tot Dist Heading (true) Name
O EBOS APT - 0 ft / 0 m 51.19997˚ 2.87501˚ - 0 nm - Oostende
MAK NDB - 9,700 ft / 2,957 m 50.96472˚ 3.49611˚ 27 nm 27 nm 121° / 121° MACKEL NDB
O EBCI APT - 0 ft / 0 m 50.45995˚ 4.45312˚ 47 nm 74 nm 129° / 130° Brussels South - Charleroi

Altitude Profile

Advertisement - Login to hide

EBOS

Details ICAO EBOS (OST)
Name Oostende
Region Belgium
Timezone Europe/Brussels (UTC+1.0)
Stats Elevation 13 ft / 4 m (AMSL)
Location 51.199967° 2.875008°
Runways 1
Magnetic Variation 0.590° E

METAR

EBOS 162220Z 32011KT 9999 SCT019 04/M00 Q1020 NOSIG

Decode

TAF

TAF EBOS 161700Z 1618/1724 32013KT 9999 FEW015TCU SCT030 BECMG 1709/1711 26010KT BECMG 1712/1714 20010KT TEMPO 1719/1723 4000 RA SCT008 BKN013 BECMG 1722/1724 29015G25KT

Decode

Departure Runways

ID Width Length Bearing (true) Bearing (mag) Surface Threshold Offset Overrun Length
08 148 ft / 45 m 10,515 ft / 3,205 m 76.36° 75.77° Asphalt 984 ft / 300 m 0 ft / 0 m
26 148 ft / 45 m 10,515 ft / 3,205 m 256.39° 255.80° Asphalt 1,362 ft / 415 m 0 ft / 0 m

EBCI

Details ICAO EBCI (CRL)
Name Brussels South - Charleroi
Region Belgium
Timezone Europe/Brussels (UTC+1.0)
Stats Elevation 614 ft / 187 m (AMSL)
Location 50.459947° 4.453125°
Runways 1
Magnetic Variation 1.134° E

METAR

EBCI 162220Z 24008KT 9999 FEW021 SCT028 01/M01 Q1020 NOSIG

Decode

TAF

TAF EBCI 161700Z 1618/1724 28009KT 9999 FEW012TCU SCT030 TEMPO 1700/1708 2500 -SHSNRA BKN005 PROB30 TEMPO 1700/1706 1200 BKN002 BECMG 1704/1706 2500 BR BKN004 BECMG 1709/1711 8000 NSW SCT015 BECMG 1718/1720 22010KT BECMG 1722/1724 4000 -RADZ SCT005 BKN008

Decode

Destination Runways

ID Width Length Bearing (true) Bearing (mag) Surface Threshold Offset Overrun Length
07 148 ft / 45 m 8,374 ft / 2,552 m 65.53° 64.40° Asphalt 1,476 ft / 450 m 0 ft / 0 m
25 148 ft / 45 m 8,374 ft / 2,552 m 245.55° 244.42° Asphalt 0 ft / 0 m 0 ft / 0 m

Approach Navaids

Runway Type Ident Frequency Range Bearing (true) Bearing (mag) Slope Elevation
25 Localiser IGC 110.90 MHz 18 nm / 33 km 245.54° 244.41° - 614 ft / 187 m (AMSL)
25 Glidescope IGC 110.90 MHz 10 nm / 19 km 245.54° 244.41° 3.00° 614 ft / 187 m (AMSL)

Popular Alternatives